Billings, MT (59102)

11:23 PM MST on December 17, 2014 (GMT -0700)
QTH | Change Station
CLOSE
Current Station
Personal Weather Station
Location: Billings, MT
Elevation: 3228 ft
Nearby Weather Stations

Elev 3228 ft 45.78 °N, 108.57 °W | Updated 55 seconds ago

Clear
Clear
29.1 °F
Feels Like 22 °F
N
7.6
Wind Variable Wind from SW
Gusts 13.6 mph

Today
High -- | Low -- °F
--% Chance of Precip.
Yesterday
High -- | Low -- °F
Precip. -- in
7:50 AM 4:30 PM
Waning Crescent, 17% visible
Pressure 30.05 in
Visibility 10.0 miles
Clouds Few 7500 ft
Windchill 22 °F
Dew Point 22 °F
Humidity 75%
Rainfall 0.05 in
Snow Depth Not available.
UV 0 out of 12
Pollen .10 out of 12
Air Quality Not available.
Flu Activity Not available.
METAR KBIL 180553Z 23013KT 10SM FEW075 M03/M07 A2994 RMK AO2 SLP176 4/001 T10331067 10000 21033 53007

More Conditions Fewer Conditions

Pressure 30.05 in
Visibility 10.0 miles
Clouds Few 7500 ft
Windchill 22 °F
Dew Point 22 °F
Humidity 75%
Rainfall 0.05 in
Snow Depth Not available.
UV 0 out of 12
Pollen .10 out of 12
Air Quality Not available.
Flu Activity Not available.
METAR KBIL 180553Z 23013KT 10SM FEW075 M03/M07 A2994 RMK AO2 SLP176 4/001 T10331067 10000 21033 53007

More Conditions Fewer Conditions

10-Day Weather Forecast

Almanac

Astronomy

Dec. 17, 2014 Rise Set
Actual Time
Civil Twilight
Nautical Twilight
Astronomical Twilight
Moon
Length of Visible Light
Length of Day
Tomorrow will be .
, % of the Moon is Illuminated

Today's Extremes

State Highs State Lows

Community

WunderPhotos

Upload Photos

1,778,896 photos uploaded!

WunderBlogs® & News

Nearby

Air Quality

  Air Quality AQ Index Pollutant
Not available.

Snow Depth

Station Depth Elevation

Earthquake Activity

City Distance Mag. Time & Date
Minimum magnitude displayed is 2.5.

Coastal Water Temperatures

Place Temperature

Nearby Weather Stations